Time;durP1;ratioP1;P1;durP2;ratioP2;P2;SDS_P1;SDS_P2;PMS_P1;PMS_P2;Temp;Humidity;BMP_temperature;BMP_pressure;BME280_temperature;BME280_humidity;BME280_pressure;Samples;Min_cycle;Max_cycle;Signal;HPM_P1;HPM_P2
2022/11/24 00:01:48;;;;;;;27.02;14.13;;;6.90;99.90;;;;;;5093320;28;20144;-77
2022/11/24 00:04:14;;;;;;;32.78;14.07;;;6.30;99.90;;;;;;5092979;28;20051;-77
2022/11/24 00:06:40;;;;;;;42.08;14.90;;;6.50;99.90;;;;;;5093202;28;20044;-77
2022/11/24 00:09:06;;;;;;;38.25;12.85;;;7.00;99.90;;;;;;5093207;28;20101;-77
2022/11/24 00:11:34;;;;;;;37.42;14.68;;;6.40;99.90;;;;;;5092153;28;20055;-77
2022/11/24 00:14:01;;;;;;;32.65;13.75;;;6.50;99.90;;;;;;5093094;28;20044;-77
2022/11/24 00:16:32;;;;;;;34.80;13.00;;;6.50;99.90;;;;;;5093027;28;20113;-77
2022/11/24 00:18:59;;;;;;;35.70;13.35;;;6.40;99.90;;;;;;5091802;28;20063;-77
2022/11/24 00:21:26;;;;;;;46.25;14.13;;;6.80;99.90;;;;;;5093269;28;20157;-76
2022/11/24 00:23:52;;;;;;;39.58;13.85;;;6.80;99.90;;;;;;5091761;28;20051;-77
2022/11/24 00:26:21;;;;;;;35.50;15.05;;;7.00;99.90;;;;;;5074984;28;20051;-78
2022/11/24 00:28:48;;;;;;;37.50;14.93;;;7.80;99.90;;;;;;5092891;28;20171;-78
2022/11/24 00:31:26;;;;;;;33.53;13.85;;;6.40;99.90;;;;;;5091352;28;20044;-77
2022/11/24 00:33:53;;;;;;;34.80;13.68;;;6.90;99.90;;;;;;5092014;28;20492;-77
2022/11/24 00:36:21;;;;;;;39.00;14.18;;;6.70;99.90;;;;;;5092661;28;20047;-77
2022/11/24 00:38:51;;;;;;;40.42;14.93;;;7.60;99.90;;;;;;5092729;28;20377;-76
2022/11/24 00:41:17;;;;;;;34.15;14.90;;;7.60;99.90;;;;;;5091662;28;20128;-77
2022/11/24 00:43:42;;;;;;;38.08;14.65;;;6.80;99.90;;;;;;5091610;28;20048;-77
2022/11/24 00:46:08;;;;;;;38.63;15.18;;;6.70;99.90;;;;;;5092414;28;20368;-77
2022/11/24 00:48:34;;;;;;;37.13;14.30;;;7.10;99.90;;;;;;5091410;28;20727;-77
2022/11/24 00:51:02;;;;;;;42.70;16.33;;;6.50;99.90;;;;;;5092272;28;20051;-78
2022/11/24 00:53:28;;;;;;;40.47;14.77;;;7.20;99.90;;;;;;5092248;28;20415;-77
2022/11/24 00:55:54;;;;;;;35.42;15.23;;;6.70;99.90;;;;;;5091249;28;20135;-78
2022/11/24 00:58:21;;;;;;;46.78;15.90;;;6.50;99.90;;;;;;5092527;28;20048;-79
2022/11/24 01:00:47;;;;;;;43.00;15.65;;;6.70;99.90;;;;;;5092253;28;20048;-76
2022/11/24 01:03:14;;;;;;;36.78;13.98;;;6.60;99.90;;;;;;5091285;28;20050;-78
2022/11/24 01:05:39;;;;;;;52.63;15.10;;;6.50;99.90;;;;;;5091440;28;20391;-77
2022/11/24 01:08:05;;;;;;;44.08;15.30;;;6.60;99.90;;;;;;5092157;28;20044;-77
2022/11/24 01:10:32;;;;;;;41.10;13.95;;;6.60;99.90;;;;;;5091141;28;20083;-78
2022/11/24 01:12:58;;;;;;;42.95;14.73;;;6.60;99.90;;;;;;5091152;28;20078;-77
2022/11/24 01:15:23;;;;;;;39.45;15.40;;;6.90;99.90;;;;;;5092077;28;20056;-78
2022/11/24 01:17:49;;;;;;;43.80;14.18;;;6.50;99.90;;;;;;5074376;28;20048;-77
2022/11/24 01:20:15;;;;;;;41.53;14.23;;;6.80;99.90;;;;;;5091044;28;20201;-78
2022/11/24 01:22:41;;;;;;;38.42;14.30;;;6.50;99.90;;;;;;5092278;28;20122;-78
2022/11/24 01:25:09;;;;;;;51.83;13.70;;;7.40;99.90;;;;;;5092307;28;20544;-78
2022/11/24 01:27:34;;;;;;;32.97;12.82;;;6.80;99.90;;;;;;5074388;28;20054;-77
2022/11/24 01:30:00;;;;;;;40.95;13.23;;;6.30;99.90;;;;;;5091913;28;20044;-77
2022/11/24 01:32:26;;;;;;;44.00;13.48;;;6.80;99.90;;;;;;5057475;28;20051;-77
2022/11/24 01:34:52;;;;;;;40.00;13.18;;;6.70;99.90;;;;;;5073775;28;20052;-78
2022/11/24 01:37:17;;;;;;;55.20;14.80;;;6.60;99.90;;;;;;5090573;28;20106;-78
2022/11/24 01:39:43;;;;;;;46.30;12.27;;;6.90;99.90;;;;;;5092131;28;20044;-79
2022/11/24 01:42:09;;;;;;;38.95;11.90;;;6.90;99.90;;;;;;5091106;28;20040;-78
2022/11/24 01:44:35;;;;;;;44.17;12.95;;;6.90;99.90;;;;;;5093817;28;20131;-76
2022/11/24 01:47:19;;;;;;;42.47;12.80;;;6.80;99.90;;;;;;5094867;28;20128;-79
2022/11/24 01:49:54;;;;;;;39.20;10.77;;;7.10;99.90;;;;;;5094737;28;20054;-78
2022/11/24 01:52:44;;;;;;;36.85;10.13;;;6.90;99.90;;;;;;5094602;28;20664;-78
2022/11/24 01:55:18;;;;;;;36.08;10.73;;;7.20;99.90;;;;;;5094875;28;20040;-79
2022/11/24 01:58:05;;;;;;;33.85;9.73;;;7.30;99.90;;;;;;5094556;28;20048;-79
2022/11/24 02:00:35;;;;;;;39.33;9.15;;;7.20;99.90;;;;;;5076300;28;20163;-80
2022/11/24 02:03:00;;;;;;;40.10;9.13;;;7.30;99.90;;;;;;5095666;28;20184;-84
2022/11/24 02:05:36;;;;;;;36.92;9.02;;;7.70;99.90;;;;;;5077740;28;20122;-81
2022/11/24 02:08:10;;;;;;;29.80;8.20;;;7.50;99.90;;;;;;5095720;28;20044;-82
2022/11/24 02:10:36;;;;;;;36.10;7.68;;;7.20;99.90;;;;;;5095519;28;20051;-81
2022/11/24 02:13:03;;;;;;;34.13;8.25;;;7.50;99.90;;;;;;5094333;28;20144;-82
2022/11/24 02:15:28;;;;;;;27.35;7.72;;;7.20;99.90;;;;;;5077491;28;20059;-82
2022/11/24 02:17:54;;;;;;;30.48;7.50;;;7.40;99.90;;;;;;5095338;28;20044;-82
2022/11/24 02:20:20;;;;;;;37.90;8.05;;;8.30;99.90;;;;;;5094166;28;20044;-83
2022/11/24 02:23:01;;;;;;;39.60;8.75;;;;;;;;;;5094086;28;20384;-81
2022/11/24 02:25:31;;;;;;;30.20;7.18;;;7.40;99.90;;;;;;5094171;28;20044;-84
2022/11/24 02:28:00;;;;;;;23.65;6.72;;;7.20;99.90;;;;;;5094996;28;20079;-84
2022/11/24 02:30:27;;;;;;;32.00;6.95;;;7.70;99.90;;;;;;5077069;28;20040;-84
2022/11/24 02:32:53;;;;;;;33.90;7.45;;;7.20;99.90;;;;;;5094889;28;20050;-84
2022/11/24 02:35:19;;;;;;;29.23;7.53;;;8.00;99.90;;;;;;5094013;28;20052;-84
2022/11/24 02:37:45;;;;;;;37.70;7.55;;;7.30;99.90;;;;;;5095029;28;20484;-84
2022/11/24 02:40:15;;;;;;;33.65;7.47;;;7.80;99.90;;;;;;5094926;28;20059;-84
2022/11/24 02:42:45;;;;;;;29.30;6.72;;;7.10;99.90;;;;;;5093607;28;20079;-84
2022/11/24 02:45:11;;;;;;;33.55;6.32;;;6.70;99.90;;;;;;5094843;28;20079;-82
2022/11/24 02:47:37;;;;;;;31.52;5.82;;;7.50;99.90;;;;;;5093543;28;20106;-80
2022/11/24 02:50:03;;;;;;;34.25;6.45;;;8.80;99.90;;;;;;5093514;28;20047;-82
2022/11/24 02:52:29;;;;;;;37.38;6.65;;;7.00;99.90;;;;;;5093611;28;20105;-81
2022/11/24 02:54:54;;;;;;;26.73;6.47;;;7.10;99.90;;;;;;5093792;28;20044;-82
2022/11/24 02:57:22;;;;;;;25.70;5.82;;;7.40;99.90;;;;;;5094365;28;20051;-82
2022/11/24 02:59:47;;;;;;;33.20;5.90;;;7.10;99.90;;;;;;5093524;28;20056;-81
2022/11/24 03:02:13;;;;;;;34.75;5.75;;;7.50;99.90;;;;;;5094471;28;20377;-81
2022/11/24 03:04:39;;;;;;;28.55;5.82;;;7.80;99.90;;;;;;5093166;28;20120;-81
2022/11/24 03:07:04;;;;;;;37.42;6.05;;;7.00;99.90;;;;;;5093119;28;20048;-83
2022/11/24 03:09:30;;;;;;;35.53;5.45;;;7.00;99.90;;;;;;5092880;28;20467;-83
2022/11/24 03:11:56;;;;;;;28.90;6.22;;;7.90;99.90;;;;;;5094042;28;20048;-82
2022/11/24 03:14:22;;;;;;;32.92;6.30;;;7.00;99.90;;;;;;5093288;28;20487;-82
2022/11/24 03:16:47;;;;;;;31.30;7.38;;;7.10;99.90;;;;;;5093085;28;20359;-82
2022/11/24 03:19:13;;;;;;;27.13;6.20;;;6.80;99.90;;;;;;5076066;28;20051;-83
2022/11/24 03:21:38;;;;;;;35.00;6.35;;;6.60;99.90;;;;;;5094198;28;20397;-83
2022/11/24 03:24:04;;;;;;;35.53;5.82;;;6.70;99.90;;;;;;5092961;28;20052;-81
2022/11/24 03:26:32;;;;;;;33.63;5.45;;;7.10;99.90;;;;;;5093425;28;20047;-82
2022/11/24 03:28:58;;;;;;;32.28;5.38;;;7.00;99.90;;;;;;5094262;28;20126;-80
2022/11/24 03:31:24;;;;;;;36.15;6.03;;;6.50;99.90;;;;;;5093843;28;20044;-80
2022/11/24 03:33:49;;;;;;;29.60;5.90;;;6.80;99.90;;;;;;5093964;28;20070;-81
2022/11/24 03:36:16;;;;;;;36.53;6.40;;;7.00;99.90;;;;;;5092584;28;20050;-81
2022/11/24 03:38:42;;;;;;;32.92;5.10;;;6.90;99.90;;;;;;5093841;28;20047;-81
2022/11/24 03:41:07;;;;;;;24.88;5.70;;;7.00;99.90;;;;;;5092452;28;20088;-80
2022/11/24 03:43:33;;;;;;;33.80;5.93;;;6.80;99.90;;;;;;5093712;28;20086;-82
2022/11/24 03:45:59;;;;;;;27.88;5.75;;;6.80;99.90;;;;;;5093569;28;20100;-81
2022/11/24 03:48:24;;;;;;;43.13;6.70;;;6.60;99.90;;;;;;5093575;28;20044;-81
2022/11/24 03:50:58;;;;;;;30.35;5.55;;;6.50;99.90;;;;;;5075348;28;20083;-80
2022/11/24 03:53:26;;;;;;;25.65;6.22;;;7.30;99.90;;;;;;5091989;28;20566;-81
2022/11/24 03:55:52;;;;;;;34.38;5.97;;;6.70;99.90;;;;;;5092175;28;20056;-81
2022/11/24 03:58:18;;;;;;;38.30;5.78;;;6.70;99.90;;;;;;5091902;28;20058;-81
2022/11/24 04:00:44;;;;;;;43.60;6.93;;;6.70;99.90;;;;;;5092083;28;20044;-80
2022/11/24 04:03:10;;;;;;;33.08;5.75;;;7.70;99.90;;;;;;5093345;28;20048;-81
2022/11/24 04:05:36;;;;;;;31.30;5.53;;;6.50;99.90;;;;;;5093304;28;20384;-81
2022/11/24 04:08:04;;;;;;;35.47;5.95;;;6.40;99.90;;;;;;5092388;28;20154;-81
2022/11/24 04:10:31;;;;;;;27.33;5.55;;;6.50;99.90;;;;;;5091628;28;20476;-83
2022/11/24 04:12:57;;;;;;;24.33;5.65;;;6.80;99.90;;;;;;5092190;28;20142;-81
2022/11/24 04:15:23;;;;;;;42.72;5.88;;;6.50;99.90;;;;;;5075175;28;20054;-80
2022/11/24 04:17:49;;;;;;;27.05;6.57;;;6.70;99.90;;;;;;5075238;28;20094;-82
2022/11/24 04:20:16;;;;;;;29.65;5.82;;;6.80;99.90;;;;;;5092720;28;20511;-80
2022/11/24 04:22:42;;;;;;;33.08;5.18;;;6.70;99.90;;;;;;5091885;28;20055;-80
2022/11/24 04:25:09;;;;;;;38.40;5.75;;;6.40;99.90;;;;;;5092759;28;20106;-81
2022/11/24 04:27:36;;;;;;;25.40;5.22;;;6.80;99.90;;;;;;5092689;28;20040;-80
2022/11/24 04:30:03;;;;;;;39.58;5.50;;;6.70;99.90;;;;;;5092778;28;20058;-80
2022/11/24 04:32:29;;;;;;;27.45;4.93;;;6.60;99.90;;;;;;5091605;28;20054;-80
2022/11/24 04:34:54;;;;;;;32.90;4.97;;;6.80;99.90;;;;;;5092912;28;20056;-81
2022/11/24 04:37:20;;;;;;;31.73;5.10;;;6.70;99.90;;;;;;5091830;28;20054;-83
2022/11/24 04:39:46;;;;;;;31.98;5.32;;;6.70;99.90;;;;;;5092572;28;20047;-79
2022/11/24 04:42:12;;;;;;;29.00;4.72;;;7.00;99.90;;;;;;5091643;28;20055;-80
2022/11/24 04:44:37;;;;;;;28.27;4.72;;;6.80;99.90;;;;;;5092704;28;20055;-80
2022/11/24 04:47:04;;;;;;;23.27;5.18;;;7.90;99.90;;;;;;5092605;28;20048;-80
2022/11/24 04:49:29;;;;;;;37.28;5.53;;;7.10;99.90;;;;;;5091424;28;20039;-80
2022/11/24 04:51:55;;;;;;;31.60;4.72;;;7.00;99.90;;;;;;5091422;28;20397;-82
2022/11/24 04:54:21;;;;;;;29.45;4.93;;;7.00;99.90;;;;;;5091128;28;20080;-81
2022/11/24 04:56:50;;;;;;;28.10;5.35;;;7.30;99.90;;;;;;5092618;28;20080;-81
2022/11/24 04:59:17;;;;;;;22.88;4.65;;;6.60;99.90;;;;;;5092588;28;20062;-81
2022/11/24 05:01:43;;;;;;;;;;;6.90;99.90;;;;;;5092001;28;20569;-80
2022/11/24 05:04:10;;;;;;;27.15;4.68;;;6.90;99.90;;;;;;5092594;28;19971;-81
2022/11/24 05:06:36;;;;;;;29.25;4.60;;;6.50;99.90;;;;;;5091457;28;20048;-81
2022/11/24 05:09:02;;;;;;;;;;;6.60;99.90;;;;;;5092593;28;20067;-81
2022/11/24 05:11:28;;;;;;;31.55;4.53;;;6.90;99.90;;;;;;5091318;28;19928;-81
2022/11/24 05:13:54;;;;;;;35.28;4.93;;;6.60;99.90;;;;;;5092190;28;20152;-80
2022/11/24 05:16:19;;;;;;;28.77;4.68;;;6.60;99.90;;;;;;5091401;28;20058;-82
2022/11/24 05:18:45;;;;;;;22.25;4.50;;;6.70;99.90;;;;;;5094316;28;20055;-81
2022/11/24 05:21:11;;;;;;;31.48;4.72;;;6.50;99.90;;;;;;5095204;28;20503;-82
2022/11/24 05:23:36;;;;;;;22.38;4.60;;;6.40;99.90;;;;;;5095861;28;20130;-80
2022/11/24 05:26:03;;;;;;;26.75;4.68;;;6.50;99.90;;;;;;5096356;28;20055;-80
2022/11/24 05:28:28;;;;;;;;;;;6.40;99.90;;;;;;5096774;28;20056;-80
2022/11/24 05:30:59;;;;;;;27.85;6.30;;;6.40;99.90;;;;;;5096160;28;20018;-79
2022/11/24 05:33:27;;;;;;;31.17;4.65;;;6.30;99.90;;;;;;5096146;28;20130;-80
2022/11/24 05:35:53;;;;;;;25.58;4.40;;;6.20;99.90;;;;;;5095021;28;20136;-79
2022/11/24 05:38:20;;;;;;;25.00;5.10;;;6.00;99.90;;;;;;5095899;28;20075;-79
2022/11/24 05:40:46;;;;;;;32.75;5.45;;;6.60;99.90;;;;;;5096051;28;20048;-78
2022/11/24 05:43:16;;;;;;;28.98;4.80;;;6.40;99.90;;;;;;5096074;28;20044;-79
2022/11/24 05:45:43;;;;;;;29.80;4.80;;;6.20;99.90;;;;;;5095000;28;20074;-80
2022/11/24 05:48:11;;;;;;;35.95;5.05;;;7.00;99.90;;;;;;5095534;28;20526;-79
2022/11/24 05:50:37;;;;;;;26.15;4.13;;;6.10;99.90;;;;;;5095597;28;20044;-81
2022/11/24 05:53:04;;;;;;;27.98;4.32;;;6.10;99.90;;;;;;5095851;28;20381;-79
2022/11/24 05:55:31;;;;;;;29.42;4.75;;;6.30;99.90;;;;;;5095468;28;20484;-80
2022/11/24 05:58:00;;;;;;;;;;;6.10;99.90;;;;;;5096169;28;20499;-81
2022/11/24 06:00:26;;;;;;;29.77;4.88;;;5.90;99.90;;;;;;5095717;28;20019;-81
2022/11/24 06:02:52;;;;;;;;;;;5.90;99.90;;;;;;5096020;28;20044;-80
2022/11/24 06:05:18;;;;;;;32.15;4.30;;;;;;;;;;5094013;28;20018;-82
2022/11/24 06:07:43;;;;;;;22.20;3.97;;;5.90;99.90;;;;;;5095475;28;20048;-79
2022/11/24 06:10:09;;;;;;;27.83;4.10;;;6.10;99.90;;;;;;5095451;28;20100;-79
2022/11/24 06:12:35;;;;;;;26.13;4.80;;;6.00;99.90;;;;;;5095481;28;20136;-80
2022/11/24 06:15:01;;;;;;;25.67;4.68;;;6.50;99.90;;;;;;5095459;28;20067;-80
2022/11/24 06:17:27;;;;;;;31.42;4.65;;;6.00;99.90;;;;;;5094346;28;20047;-81
2022/11/24 06:19:53;;;;;;;35.45;5.15;;;5.70;99.90;;;;;;5095022;28;20036;-79
2022/11/24 06:22:19;;;;;;;22.42;4.32;;;6.00;99.90;;;;;;5095298;28;20051;-80
2022/11/24 06:24:45;;;;;;;26.63;4.82;;;6.10;99.90;;;;;;5094243;28;20044;-80
2022/11/24 06:27:11;;;;;;;19.25;4.38;;;6.00;99.90;;;;;;5077420;28;20105;-80
2022/11/24 06:29:37;;;;;;;32.60;4.55;;;6.40;99.90;;;;;;5094180;28;20486;-82
2022/11/24 06:32:04;;;;;;;25.80;4.72;;;6.10;99.90;;;;;;5093788;28;20040;-80
2022/11/24 06:34:29;;;;;;;32.58;5.65;;;5.90;99.90;;;;;;5093398;28;20101;-80
2022/11/24 06:36:56;;;;;;;35.47;5.00;;;6.00;99.90;;;;;;5093975;28;20056;-80
2022/11/24 06:39:21;;;;;;;26.52;4.70;;;5.90;99.90;;;;;;5094965;28;20380;-80
2022/11/24 06:41:49;;;;;;;29.48;5.43;;;6.20;99.90;;;;;;5093490;28;20048;-80
2022/11/24 06:44:15;;;;;;;22.08;4.53;;;5.90;99.90;;;;;;5093708;28;20085;-81
2022/11/24 06:46:40;;;;;;;31.13;4.72;;;5.60;99.90;;;;;;5094826;28;20048;-83
2022/11/24 06:49:06;;;;;;;29.98;4.95;;;6.00;99.90;;;;;;5093553;28;20083;-81
2022/11/24 06:51:32;;;;;;;24.45;4.80;;;6.00;99.90;;;;;;5094642;28;20055;-81
2022/11/24 06:53:58;;;;;;;21.88;4.40;;;5.50;99.90;;;;;;5093464;28;20052;-80
2022/11/24 06:56:23;;;;;;;25.27;4.32;;;5.80;99.90;;;;;;5094572;28;20119;-80
2022/11/24 06:58:51;;;;;;;25.13;4.60;;;5.60;99.90;;;;;;5094571;28;20044;-81
2022/11/24 07:01:23;;;;;;;22.80;5.22;;;5.50;99.90;;;;;;5093563;28;20062;-80
2022/11/24 07:03:50;;;;;;;24.52;4.45;;;5.90;99.90;;;;;;5093274;28;20094;-80
2022/11/24 07:06:17;;;;;;;32.95;5.47;;;6.00;99.90;;;;;;5093241;28;20102;-80
2022/11/24 07:08:43;;;;;;;;;;;5.70;99.90;;;;;;5094726;28;20044;-80
2022/11/24 07:11:12;;;;;;;22.80;4.40;;;5.30;99.90;;;;;;5093076;28;19920;-80
2022/11/24 07:13:38;;;;;;;25.15;4.60;;;;;;;;;;5093046;28;20039;-80
2022/11/24 07:16:14;;;;;;;;;;;5.50;99.90;;;;;;5088909;28;20101;-80
2022/11/24 07:18:40;;;;;;;29.42;4.97;;;5.70;99.90;;;;;;5109170;28;19924;-79
2022/11/24 07:21:06;;;;;;;26.92;4.63;;;5.60;99.90;;;;;;5110096;28;20417;-79
2022/11/24 07:23:31;;;;;;;27.00;5.65;;;5.60;99.90;;;;;;5112337;28;20086;-79
2022/11/24 07:25:58;;;;;;;25.02;4.75;;;5.70;99.90;;;;;;5113512;28;20173;-80
2022/11/24 07:28:24;;;;;;;30.00;4.63;;;5.40;99.90;;;;;;5113489;28;20048;-80
2022/11/24 07:30:49;;;;;;;24.60;4.32;;;6.00;99.90;;;;;;5111529;28;20123;-80
2022/11/24 07:33:18;;;;;;;23.27;4.45;;;5.70;99.90;;;;;;5113263;28;20139;-80
2022/11/24 07:35:44;;;;;;;29.38;4.45;;;5.90;99.90;;;;;;5113280;28;20126;-80
2022/11/24 07:38:09;;;;;;;24.63;4.43;;;6.20;99.90;;;;;;5111860;28;20130;-80
2022/11/24 07:40:35;;;;;;;23.30;3.85;;;6.40;99.90;;;;;;5113335;28;20048;-82
2022/11/24 07:43:00;;;;;;;21.42;3.95;;;6.00;99.90;;;;;;5113483;28;20043;-83
2022/11/24 07:45:26;;;;;;;24.33;4.38;;;5.70;99.90;;;;;;5111775;28;20039;-84
2022/11/24 07:47:52;;;;;;;18.15;5.68;;;6.10;99.90;;;;;;5113010;28;20048;-80
2022/11/24 07:50:18;;;;;;;21.67;4.15;;;6.00;99.90;;;;;;5111628;28;20051;-82
2022/11/24 07:52:43;;;;;;;16.02;3.88;;;6.50;99.90;;;;;;5113154;28;20055;-80
2022/11/24 07:55:09;;;;;;;24.08;4.38;;;6.10;99.90;;;;;;5113262;28;20047;-80
2022/11/24 07:57:35;;;;;;;20.02;4.22;;;6.30;99.90;;;;;;5113410;28;20059;-81
2022/11/24 08:00:03;;;;;;;22.88;4.55;;;6.30;99.90;;;;;;5111525;28;20055;-83
2022/11/24 08:02:29;;;;;;;22.95;5.53;;;6.70;99.90;;;;;;5112680;28;20047;-81
2022/11/24 08:04:54;;;;;;;24.33;5.35;;;6.50;99.90;;;;;;5111745;28;20151;-82
2022/11/24 08:07:20;;;;;;;14.45;4.00;;;6.80;99.90;;;;;;5112780;28;20055;-78
2022/11/24 08:09:46;;;;;;;16.52;4.63;;;6.60;99.90;;;;;;5112227;28;20054;-79
2022/11/24 08:12:11;;;;;;;24.20;5.50;;;6.60;99.90;;;;;;5094303;28;20392;-81
2022/11/24 08:14:37;;;;;;;23.35;4.65;;;6.60;99.90;;;;;;5112258;28;20113;-81
2022/11/24 08:17:02;;;;;;;20.88;4.75;;;6.90;99.90;;;;;;5099709;28;20058;-80
2022/11/24 08:19:28;;;;;;;23.27;5.22;;;7.00;99.90;;;;;;5098403;28;20394;-82
2022/11/24 08:21:54;;;;;;;27.63;5.28;;;6.60;99.90;;;;;;5113301;28;20048;-78
2022/11/24 08:24:19;;;;;;;21.33;5.30;;;6.70;99.90;;;;;;5112988;28;20054;-77
2022/11/24 08:26:45;;;;;;;20.75;5.22;;;6.60;99.90;;;;;;5113143;28;20134;-78
2022/11/24 08:29:11;;;;;;;26.85;6.05;;;7.20;99.90;;;;;;5096808;28;20079;-78
2022/11/24 08:31:38;;;;;;;26.83;6.38;;;6.90;99.90;;;;;;5100494;28;20036;-77
2022/11/24 08:34:04;;;;;;;27.48;6.93;;;6.90;99.90;;;;;;5057038;28;20060;-74
2022/11/24 08:36:31;;;;;;;20.30;5.88;;;7.10;99.90;;;;;;5092633;28;20095;-79
2022/11/24 08:38:58;;;;;;;24.30;6.07;;;6.50;99.90;;;;;;5091478;28;20055;-73
2022/11/24 08:41:25;;;;;;;26.80;6.03;;;7.00;99.90;;;;;;5092266;28;20044;-77
2022/11/24 08:43:52;;;;;;;24.52;6.80;;;7.70;99.90;;;;;;5091430;28;20126;-78
2022/11/24 08:46:18;;;;;;;;;;;7.10;99.90;;;;;;5111096;28;20074;-75
2022/11/24 08:48:47;;;;;;;22.15;6.28;;;6.70;99.90;;;;;;5111547;28;19920;-80
2022/11/24 08:51:15;;;;;;;25.73;6.75;;;7.10;99.90;;;;;;5090565;28;20481;-79
2022/11/24 08:53:41;;;;;;;24.70;7.07;;;6.90;99.90;;;;;;5090767;28;20048;-79
2022/11/24 08:56:09;;;;;;;22.92;6.90;;;6.70;99.90;;;;;;5092182;28;20403;-79
2022/11/24 08:58:35;;;;;;;25.83;7.20;;;7.50;99.90;;;;;;5091828;28;20171;-82
2022/11/24 09:01:13;;;;;;;22.23;6.85;;;7.10;99.90;;;;;;5091329;28;20071;-74
2022/11/24 09:03:39;;;;;;;28.73;7.53;;;7.30;99.90;;;;;;5091388;28;20044;-78
2022/11/24 09:06:06;;;;;;;;;;;7.20;99.90;;;;;;5092219;28;20047;-83
2022/11/24 09:08:32;;;;;;;20.63;6.68;;;7.10;99.90;;;;;;5092146;28;19927;-77
2022/11/24 09:10:59;;;;;;;;;;;7.50;99.90;;;;;;5090030;28;21435;-78
2022/11/24 09:13:24;;;;;;;21.02;6.25;;;8.20;99.90;;;;;;5092155;28;19920;-75
2022/11/24 09:15:50;;;;;;;31.48;7.10;;;7.80;99.90;;;;;;5090747;28;20048;-77
2022/11/24 09:18:15;;;;;;;30.50;7.05;;;7.60;99.90;;;;;;5091638;28;20048;-75
2022/11/24 09:20:41;;;;;;;33.78;6.80;;;8.40;99.90;;;;;;5088304;28;20044;-74
2022/11/24 09:23:07;;;;;;;21.50;6.63;;;7.80;99.90;;;;;;5090139;28;20392;-77
2022/11/24 09:25:32;;;;;;;28.70;7.53;;;7.90;99.90;;;;;;5091825;28;20502;-79
2022/11/24 09:27:58;;;;;;;22.95;6.43;;;8.00;99.90;;;;;;5088250;28;20057;-79
2022/11/24 09:30:24;;;;;;;20.70;5.97;;;7.90;99.90;;;;;;5091276;28;20055;-79
2022/11/24 09:32:50;;;;;;;26.65;6.85;;;9.00;99.90;;;;;;5090534;28;20044;-79
2022/11/24 09:35:16;;;;;;;19.05;5.93;;;7.80;99.90;;;;;;5089476;28;20082;-79
2022/11/24 09:37:43;;;;;;;23.20;5.95;;;8.00;99.90;;;;;;5091508;28;20044;-80
2022/11/24 09:40:13;;;;;;;17.65;5.07;;;7.90;99.90;;;;;;5090453;28;20078;-79
2022/11/24 09:42:41;;;;;;;16.55;5.47;;;8.10;99.90;;;;;;5090734;28;20055;-80
2022/11/24 09:45:20;;;;;;;19.08;5.80;;;8.40;99.90;;;;;;5090438;28;20131;-79
2022/11/24 09:47:53;;;;;;;17.40;5.10;;;8.80;99.90;;;;;;5091177;28;20557;-79
2022/11/24 09:50:35;;;;;;;20.90;4.57;;;8.40;99.90;;;;;;5090070;28;20131;-79
2022/11/24 09:53:27;;;;;;;15.77;3.92;;;8.30;99.90;;;;;;5108902;28;20127;-77
2022/11/24 09:55:59;;;;;;;10.23;3.70;;;8.40;99.90;;;;;;5110945;28;20051;-77
2022/11/24 09:58:51;;;;;;;14.32;3.40;;;8.80;99.90;;;;;;5112079;28;20059;-78
2022/11/24 10:01:27;;;;;;;10.18;4.03;;;8.50;99.90;;;;;;5111021;28;20466;-78
2022/11/24 10:03:53;;;;;;;12.10;3.38;;;8.30;99.90;;;;;;5112013;28;20528;-78
2022/11/24 10:06:29;;;;;;;7.97;3.20;;;8.70;99.90;;;;;;5114643;28;20055;-77
2022/11/24 10:09:20;;;;;;;14.50;3.47;;;8.70;99.90;;;;;;5115890;28;20048;-78
2022/11/24 10:12:13;;;;;;;10.88;3.50;;;8.90;99.90;;;;;;5115668;28;20052;-76
2022/11/24 10:14:45;;;;;;;9.77;3.63;;;8.80;99.90;;;;;;5115084;28;20083;-77
2022/11/24 10:17:41;;;;;;;12.13;4.18;;;8.60;99.90;;;;;;5113892;28;20043;-77
2022/11/24 10:20:21;;;;;;;9.13;3.17;;;8.80;99.90;;;;;;5115105;28;20073;-77
2022/11/24 10:23:06;;;;;;;11.05;3.28;;;8.80;99.90;;;;;;5114932;28;20080;-77
2022/11/24 10:25:35;;;;;;;9.70;3.30;;;9.00;99.90;;;;;;5113626;28;20488;-73
2022/11/24 10:28:11;;;;;;;15.50;3.72;;;8.80;99.90;;;;;;5114552;28;20059;-77
2022/11/24 10:30:36;;;;;;;16.67;4.07;;;9.10;99.90;;;;;;5099101;27;20762;-78
2022/11/24 10:33:11;;;;;;;12.38;2.88;;;9.10;99.90;;;;;;5093783;28;20148;-70
2022/11/24 10:36:02;;;;;;;12.07;3.00;;;9.30;99.90;;;;;;5094138;28;20056;-76
2022/11/24 10:38:55;;;;;;;11.32;3.35;;;9.20;99.90;;;;;;5093001;28;20067;-77
2022/11/24 10:41:34;;;;;;;14.18;3.33;;;9.50;99.90;;;;;;5092752;28;20083;-70
2022/11/24 10:43:59;;;;;;;10.30;2.88;;;9.30;99.90;;;;;;5108128;28;20395;-75
2022/11/24 10:46:27;;;;;;;20.38;5.70;;;9.20;99.90;;;;;;5091083;28;20127;-76
2022/11/24 10:48:59;;;;;;;11.85;2.85;;;10.10;99.90;;;;;;5086776;28;20127;-76
2022/11/24 10:51:33;;;;;;;11.45;3.10;;;9.10;99.90;;;;;;5092166;28;20123;-75
2022/11/24 10:54:20;;;;;;;11.43;3.65;;;9.60;99.90;;;;;;5107306;28;20046;-74
2022/11/24 10:56:49;;;;;;;6.05;3.00;;;9.60;99.90;;;;;;5112837;28;20093;-74
2022/11/24 10:59:23;;;;;;;16.20;3.05;;;9.50;99.90;;;;;;5112611;28;20451;-75
2022/11/24 11:01:50;;;;;;;13.75;2.97;;;9.80;99.90;;;;;;5112598;28;20131;-76
2022/11/24 11:04:23;;;;;;;8.60;2.88;;;9.70;99.90;;;;;;5112597;28;20050;-74
2022/11/24 11:06:49;;;;;;;11.88;4.13;;;9.70;99.90;;;;;;5113711;28;20045;-76
2022/11/24 11:09:19;;;;;;;12.85;3.42;;;9.50;99.90;;;;;;5113594;28;20123;-77
2022/11/24 11:11:48;;;;;;;10.32;3.40;;;9.50;99.90;;;;;;5113260;28;20549;-77
2022/11/24 11:14:37;;;;;;;15.68;3.75;;;9.70;99.90;;;;;;5112508;28;20438;-77
2022/11/24 11:17:33;;;;;;;11.10;3.20;;;10.10;99.90;;;;;;5089037;28;20048;-75
2022/11/24 11:20:26;;;;;;;12.32;3.75;;;10.00;99.90;;;;;;5092123;28;20055;-75
2022/11/24 11:22:53;;;;;;;13.45;3.50;;;9.70;99.90;;;;;;5093457;28;20488;-75
2022/11/24 11:25:34;;;;;;;10.35;3.28;;;9.90;99.90;;;;;;5092496;28;20052;-74
2022/11/24 11:28:27;;;;;;;11.13;3.17;;;10.20;99.90;;;;;;5093002;28;20064;-75
2022/11/24 11:30:58;;;;;;;13.65;3.35;;;10.00;99.90;;;;;;5091644;28;20076;-76
2022/11/24 11:33:27;;;;;;;20.70;3.47;;;9.80;99.90;;;;;;5107188;28;20090;-76
2022/11/24 11:35:54;;;;;;;8.93;3.45;;;9.80;99.90;;;;;;5111459;28;20055;-77
2022/11/24 11:38:20;;;;;;;14.65;4.57;;;10.10;99.90;;;;;;5095308;28;20043;-75
2022/11/24 11:40:49;;;;;;;13.13;3.60;;;10.20;99.90;;;;;;5094483;28;20506;-76
2022/11/24 11:43:25;;;;;;;13.65;4.50;;;10.00;99.90;;;;;;5113646;28;20134;-76
2022/11/24 11:46:09;;;;;;;;;;;10.10;99.90;;;;;;5113625;28;20044;-75
2022/11/24 11:48:37;;;;;;;15.23;3.85;;;10.40;99.90;;;;;;5129074;27;19927;-75
2022/11/24 11:51:33;;;;;;;19.50;4.47;;;10.10;99.90;;;;;;5112049;28;20743;-75
2022/11/24 11:54:24;;;;;;;15.05;3.65;;;10.20;99.90;;;;;;5111656;28;20389;-76
2022/11/24 11:57:06;;;;;;;15.75;3.92;;;10.40;99.90;;;;;;5112939;28;20096;-75
2022/11/24 11:59:46;;;;;;;15.15;3.85;;;10.40;99.90;;;;;;5094869;28;20048;-77
2022/11/24 12:02:39;;;;;;;10.32;3.95;;;10.20;99.90;;;;;;5112134;28;20051;-76
2022/11/24 12:05:49;;;;;;;19.05;4.53;;;10.40;99.90;;;;;;5112557;28;20105;-77
2022/11/24 12:08:39;;;;;;;14.45;3.70;;;10.30;99.90;;;;;;5056148;28;20079;-77
2022/11/24 12:11:32;;;;;;;16.05;4.35;;;10.30;99.90;;;;;;5111456;28;20048;-75
2022/11/24 12:14:28;;;;;;;17.40;3.80;;;10.20;99.90;;;;;;5112741;28;20116;-76
2022/11/24 12:17:03;;;;;;;18.60;4.60;;;10.40;99.90;;;;;;5112961;28;20040;-75
2022/11/24 12:20:02;;;;;;;18.40;5.82;;;10.50;99.90;;;;;;5111633;28;20048;-75
2022/11/24 12:22:54;;;;;;;19.75;3.85;;;10.30;99.90;;;;;;5112421;28;20073;-77
2022/11/24 12:25:38;;;;;;;15.27;4.15;;;10.80;99.90;;;;;;5112709;28;20051;-75
2022/11/24 12:28:04;;;;;;;18.85;4.40;;;10.60;99.90;;;;;;5110817;28;20075;-75
2022/11/24 12:30:52;;;;;;;15.48;4.30;;;10.30;99.90;;;;;;5111348;28;20475;-76
2022/11/24 12:33:33;;;;;;;20.98;4.22;;;10.60;99.90;;;;;;5112480;28;20043;-75
2022/11/24 12:36:15;;;;;;;11.32;3.67;;;11.00;99.90;;;;;;5112404;28;20484;-75
2022/11/24 12:39:02;;;;;;;13.57;3.42;;;11.10;99.90;;;;;;5112182;27;20050;-75
2022/11/24 12:41:34;;;;;;;11.18;3.35;;;11.50;99.90;;;;;;5111394;28;20319;-75
2022/11/24 12:44:00;;;;;;;14.85;3.22;;;11.80;99.90;;;;;;5112303;28;20504;-75
2022/11/24 12:46:48;;;;;;;18.65;2.90;;;11.80;99.90;;;;;;5110996;28;20059;-77
2022/11/24 12:49:41;;;;;;;14.95;2.75;;;11.80;99.90;;;;;;5111168;28;20059;-76
2022/11/24 12:52:25;;;;;;;16.88;3.33;;;12.10;99.90;;;;;;5112269;28;20100;-75
2022/11/24 12:54:51;;;;;;;14.27;2.97;;;12.10;99.90;;;;;;5111296;28;20055;-75
2022/11/24 12:57:26;;;;;;;;;;;12.50;99.90;;;;;;5093330;28;20395;-77
2022/11/24 13:00:05;;;;;;;16.15;3.13;;;12.30;99.90;;;;;;5091004;28;19928;-78
2022/11/24 13:02:58;;;;;;;12.75;2.70;;;12.60;99.90;;;;;;5090108;28;20048;-75